createdAt,value
2022-12-03T00:00:12.813Z,2.19
2022-12-03T00:02:41.549Z,2.14
2022-12-03T00:05:10.519Z,2.11
2022-12-03T00:07:38.383Z,1.96
2022-12-03T00:10:07.820Z,2.11
2022-12-03T00:12:36.831Z,2.17
2022-12-03T00:15:05.274Z,1.87
2022-12-03T00:17:32.965Z,2.00
2022-12-03T00:20:00.735Z,2.05
2022-12-03T00:22:28.451Z,2.05
2022-12-03T00:24:56.464Z,2.09
2022-12-03T00:27:24.300Z,2.08
2022-12-03T00:29:53.318Z,2.14
2022-12-03T00:32:20.978Z,2.15
2022-12-03T00:34:48.621Z,1.95
2022-12-03T00:37:16.331Z,2.01
2022-12-03T00:39:44.016Z,2.04
2022-12-03T00:42:11.706Z,1.77
2022-12-03T00:44:39.380Z,1.83
2022-12-03T00:47:09.476Z,2.00
2022-12-03T00:49:37.325Z,2.07
2022-12-03T00:52:05.085Z,1.92
2022-12-03T00:54:32.718Z,1.88
2022-12-03T00:57:00.356Z,1.79
2022-12-03T00:59:28.293Z,1.86
2022-12-03T01:01:57.430Z,1.95
2022-12-03T01:04:26.749Z,2.05
2022-12-03T01:06:54.502Z,2.11
2022-12-03T01:09:22.323Z,2.09
2022-12-03T01:11:49.985Z,2.07
2022-12-03T01:14:20.006Z,2.10
2022-12-03T01:16:48.227Z,1.93
2022-12-03T01:19:17.271Z,1.89
2022-12-03T01:21:50.723Z,2.01
2022-12-03T01:24:19.616Z,2.06
2022-12-03T01:26:47.394Z,2.00
2022-12-03T01:29:15.598Z,2.10
2022-12-03T01:32:12.310Z,2.14
2022-12-03T01:34:39.969Z,2.07
2022-12-03T01:37:08.968Z,1.99
2022-12-03T01:39:36.796Z,2.04
2022-12-03T01:42:05.548Z,1.98
2022-12-03T01:44:36.153Z,1.99
2022-12-03T01:47:06.827Z,2.04
2022-12-03T01:49:40.811Z,1.80
2022-12-03T01:52:13.090Z,1.92
2022-12-03T01:54:43.386Z,1.92
2022-12-03T02:00:07.584Z,1.79
2022-12-03T02:02:35.849Z,1.85
2022-12-03T02:05:10.682Z,1.90
2022-12-03T02:07:38.658Z,1.78
2022-12-03T02:10:07.591Z,1.67
2022-12-03T02:12:38.758Z,1.68
2022-12-03T02:15:10.103Z,1.63
2022-12-03T02:17:38.678Z,1.52
2022-12-03T02:20:09.745Z,1.78
2022-12-03T02:22:46.417Z,1.92
2022-12-03T02:25:17.352Z,1.74
2022-12-03T02:27:46.255Z,1.55
2022-12-03T02:30:16.724Z,1.27
2022-12-03T02:32:44.592Z,1.46
2022-12-03T02:35:16.996Z,1.64
2022-12-03T02:37:46.947Z,1.73
2022-12-03T02:40:19.772Z,1.48
2022-12-03T02:42:47.511Z,1.67
2022-12-03T02:45:19.863Z,1.72
2022-12-03T02:47:50.716Z,1.79
2022-12-03T02:50:23.295Z,1.78
2022-12-03T02:52:55.358Z,1.79
2022-12-03T02:55:25.343Z,1.63
2022-12-03T02:57:53.553Z,1.77
2022-12-03T03:00:23.401Z,1.79
2022-12-03T03:02:51.556Z,1.83
2022-12-03T03:05:22.505Z,1.76
2022-12-03T03:07:51.855Z,1.68
2022-12-03T03:10:23.959Z,1.49
2022-12-03T03:12:56.016Z,1.60
2022-12-03T03:15:24.590Z,1.40
2022-12-03T03:17:52.897Z,1.54
2022-12-03T03:20:20.995Z,1.62
2022-12-03T03:22:48.640Z,1.66
2022-12-03T03:25:21.010Z,1.70
2022-12-03T03:27:48.854Z,1.75
2022-12-03T03:30:18.079Z,1.74
2022-12-03T03:32:45.892Z,1.41
2022-12-03T03:35:14.636Z,1.34
2022-12-03T03:37:43.150Z,1.54
2022-12-03T03:40:11.662Z,1.47
2022-12-03T03:42:40.040Z,1.47
2022-12-03T03:45:09.144Z,1.58
2022-12-03T03:47:38.523Z,1.65
2022-12-03T03:50:08.647Z,1.56
2022-12-03T03:52:37.408Z,1.63
2022-12-03T03:55:06.319Z,1.65
2022-12-03T03:57:34.339Z,1.72
2022-12-03T04:00:02.161Z,1.71
2022-12-03T04:02:29.824Z,1.54
2022-12-03T04:04:59.015Z,1.21
2022-12-03T04:07:26.813Z,1.36
2022-12-03T04:09:54.510Z,1.38
2022-12-03T04:12:48.014Z,1.46
2022-12-03T04:15:15.805Z,1.55
2022-12-03T04:17:43.452Z,1.54
2022-12-03T04:20:13.757Z,1.42
2022-12-03T04:22:40.429Z,1.48
2022-12-03T04:25:27.303Z,1.49
2022-12-03T04:28:13.077Z,1.55
2022-12-03T04:30:40.973Z,1.60
2022-12-03T04:33:26.139Z,1.65
2022-12-03T04:35:55.256Z,1.70
2022-12-03T04:38:23.047Z,1.71
2022-12-03T04:41:04.082Z,1.74
2022-12-03T04:43:33.976Z,1.77
2022-12-03T04:46:02.359Z,1.49
2022-12-03T04:48:30.129Z,1.27
2022-12-03T04:50:59.195Z,1.12
2022-12-03T04:53:26.963Z,1.37
2022-12-03T04:55:54.619Z,1.50
2022-12-03T04:58:22.373Z,1.63
2022-12-03T05:00:50.149Z,1.63
2022-12-03T05:03:17.820Z,1.64
2022-12-03T05:05:45.468Z,1.67
2022-12-03T05:08:14.453Z,1.58
2022-12-03T05:10:42.201Z,1.42
2022-12-03T05:13:09.867Z,1.52
2022-12-03T05:15:37.564Z,1.36
2022-12-03T05:18:05.558Z,1.14
2022-12-03T05:20:43.238Z,1.13
2022-12-03T05:23:15.187Z,1.30
2022-12-03T05:25:42.839Z,1.33
2022-12-03T05:28:10.550Z,0.93
2022-12-03T05:30:38.245Z,0.99
2022-12-03T05:33:05.962Z,1.10
2022-12-03T05:35:33.712Z,1.10
2022-12-03T05:38:01.386Z,1.11
2022-12-03T05:40:30.400Z,1.14
2022-12-03T05:42:57.247Z,1.01
2022-12-03T05:45:26.456Z,1.21
2022-12-03T05:47:55.094Z,1.28
2022-12-03T05:50:24.846Z,1.35
2022-12-03T05:52:52.838Z,1.41
2022-12-03T05:55:20.604Z,1.39
2022-12-03T05:57:49.729Z,1.28
2022-12-03T06:00:21.099Z,1.39
2022-12-03T06:02:50.932Z,1.45
2022-12-03T06:05:20.291Z,1.48
2022-12-03T06:07:49.076Z,1.08
2022-12-03T06:10:18.736Z,0.86
2022-12-03T06:12:46.516Z,1.07
2022-12-03T06:15:15.968Z,0.98
2022-12-03T06:17:43.643Z,1.04
2022-12-03T06:20:14.443Z,1.15
2022-12-03T06:22:42.199Z,1.28
2022-12-03T06:25:11.181Z,1.32
2022-12-03T06:27:38.914Z,1.39
2022-12-03T06:30:09.406Z,1.36
2022-12-03T06:32:38.417Z,1.14
2022-12-03T06:35:06.843Z,1.10
2022-12-03T06:37:34.771Z,1.19
2022-12-03T06:40:02.460Z,1.22
2022-12-03T06:42:30.151Z,1.21
2022-12-03T06:44:57.820Z,1.28
2022-12-03T06:47:25.526Z,1.31
2022-12-03T06:49:54.626Z,1.09
2022-12-03T06:52:22.335Z,1.19
2022-12-03T06:54:50.015Z,1.24
2022-12-03T06:57:17.781Z,1.26
2022-12-03T06:59:45.571Z,1.30
2022-12-03T07:02:13.350Z,1.16
2022-12-03T07:04:46.074Z,1.12
2022-12-03T07:07:15.592Z,1.22
2022-12-03T07:09:43.395Z,0.83
2022-12-03T07:12:11.071Z,1.05
2022-12-03T07:14:38.739Z,1.21
2022-12-03T07:17:06.421Z,1.22
2022-12-03T07:19:34.137Z,1.28
2022-12-03T07:22:01.804Z,1.25
2022-12-03T07:24:30.905Z,1.06
2022-12-03T07:26:58.564Z,1.11
2022-12-03T07:29:26.285Z,1.07
2022-12-03T07:31:54.019Z,1.15
2022-12-03T07:34:21.897Z,1.22
2022-12-03T07:36:49.631Z,1.04
2022-12-03T07:39:17.364Z,0.61
2022-12-03T07:41:46.410Z,0.72
2022-12-03T07:44:15.022Z,0.59
2022-12-03T07:46:43.776Z,0.55
2022-12-03T07:49:13.156Z,0.77
2022-12-03T07:51:41.228Z,0.97
2022-12-03T07:54:09.382Z,1.08
2022-12-03T07:56:37.086Z,1.11
2022-12-03T07:59:06.200Z,1.12
2022-12-03T08:01:34.284Z,1.17
2022-12-03T08:04:02.105Z,1.20
2022-12-03T08:06:29.804Z,1.09
2022-12-03T08:08:57.527Z,0.93
2022-12-03T08:11:25.280Z,0.85
2022-12-03T08:13:53.048Z,0.69
2022-12-03T08:16:23.222Z,0.55
2022-12-03T08:18:52.097Z,0.51
2022-12-03T08:21:21.586Z,0.77
2022-12-03T08:23:49.320Z,0.95
2022-12-03T08:26:23.000Z,0.80
2022-12-03T08:28:51.334Z,1.00
2022-12-03T08:31:21.209Z,1.07
2022-12-03T08:33:51.935Z,1.11
2022-12-03T08:36:23.231Z,1.10
2022-12-03T08:38:53.203Z,1.15
2022-12-03T08:41:42.173Z,0.95
2022-12-03T08:44:22.176Z,1.04
2022-12-03T08:46:54.209Z,0.99
2022-12-03T08:49:23.739Z,1.07
2022-12-03T08:51:57.153Z,1.16
2022-12-03T08:54:26.791Z,1.19
2022-12-03T08:56:55.207Z,1.16
2022-12-03T08:59:29.470Z,1.19
2022-12-03T09:01:59.382Z,1.22
2022-12-03T09:04:37.796Z,1.31
2022-12-03T09:07:05.873Z,1.32
2022-12-03T09:09:34.562Z,1.33
2022-12-03T09:12:03.261Z,1.48
2022-12-03T09:14:31.170Z,1.35
2022-12-03T09:16:58.836Z,1.41
2022-12-03T09:19:30.817Z,1.57
2022-12-03T09:21:59.792Z,1.53
2022-12-03T09:24:27.451Z,1.52
2022-12-03T09:26:55.243Z,1.52
2022-12-03T09:29:25.328Z,1.48
2022-12-03T09:31:53.344Z,1.39
2022-12-03T09:34:21.200Z,1.41
2022-12-03T09:36:48.943Z,1.43
2022-12-03T09:39:17.926Z,1.33
2022-12-03T09:41:45.644Z,1.37
2022-12-03T09:44:17.493Z,1.41
2022-12-03T09:46:47.631Z,1.45
2022-12-03T09:49:18.719Z,1.53
2022-12-03T09:51:47.433Z,1.53
2022-12-03T09:54:24.976Z,1.13
2022-12-03T09:56:53.658Z,0.77
2022-12-03T09:59:22.798Z,0.77
2022-12-03T10:01:50.707Z,0.88
2022-12-03T10:04:18.606Z,0.88
2022-12-03T10:06:46.533Z,0.56
2022-12-03T10:09:18.190Z,0.65
2022-12-03T10:11:47.236Z,0.88
2022-12-03T10:14:17.764Z,1.06
2022-12-03T10:16:46.436Z,1.08
2022-12-03T10:19:22.822Z,1.19
2022-12-03T10:21:50.616Z,1.25
2022-12-03T10:24:20.630Z,1.30
2022-12-03T10:26:51.805Z,1.23
2022-12-03T10:29:21.180Z,1.06
2022-12-03T10:31:56.366Z,1.09
2022-12-03T10:34:31.416Z,1.20
2022-12-03T10:37:15.332Z,1.32
2022-12-03T10:39:58.524Z,1.40
2022-12-03T10:42:29.205Z,1.40
2022-12-03T10:45:18.340Z,1.43
2022-12-03T10:48:05.124Z,1.45
2022-12-03T10:50:34.003Z,1.21
2022-12-03T10:53:01.768Z,1.25
2022-12-03T10:55:30.476Z,1.21
2022-12-03T10:57:59.828Z,1.12
2022-12-03T11:00:27.659Z,0.95
2022-12-03T11:02:57.208Z,0.76
2022-12-03T11:05:27.758Z,0.68
2022-12-03T11:07:56.278Z,0.92
2022-12-03T11:10:24.483Z,1.13
2022-12-03T11:13:44.188Z,1.22
2022-12-03T11:16:12.581Z,1.28
2022-12-03T11:19:01.579Z,1.36
2022-12-03T11:21:32.033Z,1.55
2022-12-03T11:24:20.965Z,1.53
2022-12-03T11:27:22.068Z,1.58
2022-12-03T11:29:59.946Z,1.66
2022-12-03T11:33:06.274Z,1.75
2022-12-03T11:36:06.605Z,1.79
2022-12-03T11:38:52.309Z,1.79
2022-12-03T11:41:26.381Z,1.74
2022-12-03T11:44:33.750Z,1.63
2022-12-03T11:47:14.976Z,1.59
2022-12-03T11:49:49.932Z,1.60
2022-12-03T11:52:30.323Z,1.63
2022-12-03T11:55:02.792Z,1.62
2022-12-03T11:57:34.643Z,1.68
2022-12-03T12:00:20.501Z,1.70
2022-12-03T12:02:51.098Z,1.67
2022-12-03T12:05:29.042Z,1.62
2022-12-03T12:07:57.717Z,1.66
2022-12-03T12:10:46.605Z,1.59
2022-12-03T12:13:50.261Z,1.34
2022-12-03T12:16:45.843Z,1.44
2022-12-03T12:19:38.244Z,1.40
2022-12-03T12:22:33.343Z,1.21
2022-12-03T12:25:02.954Z,1.37
2022-12-03T12:27:34.573Z,1.24
2022-12-03T12:30:04.462Z,0.96
2022-12-03T12:32:34.419Z,1.24
2022-12-03T12:35:16.082Z,1.05
2022-12-03T12:37:53.523Z,1.23
2022-12-03T12:40:28.751Z,1.41
2022-12-03T12:42:58.257Z,1.54
2022-12-03T12:45:27.725Z,1.59
2022-12-03T12:48:03.465Z,1.52
2022-12-03T12:50:33.439Z,1.61
2022-12-03T12:53:09.388Z,1.65
2022-12-03T12:55:38.819Z,1.67
2022-12-03T12:58:14.807Z,1.70
2022-12-03T13:00:43.757Z,1.70
2022-12-03T13:03:12.927Z,1.70
2022-12-03T13:05:44.546Z,1.49
2022-12-03T13:08:23.018Z,1.61
2022-12-03T13:10:51.676Z,1.66
2022-12-03T13:13:41.661Z,1.70
2022-12-03T13:16:19.427Z,1.73
2022-12-03T13:18:50.109Z,1.76
2022-12-03T13:21:24.655Z,1.74
2022-12-03T13:23:55.329Z,1.62
2022-12-03T13:26:38.756Z,1.64
2022-12-03T13:29:12.101Z,1.62
2022-12-03T13:31:43.841Z,1.59
2022-12-03T13:34:19.895Z,1.48
2022-12-03T13:36:56.987Z,1.55
2022-12-03T13:39:30.438Z,1.57
2022-12-03T13:42:17.736Z,1.13
2022-12-03T13:44:48.750Z,0.97
2022-12-03T13:47:19.727Z,0.88
2022-12-03T13:49:52.216Z,1.13
2022-12-03T13:52:24.354Z,1.15
2022-12-03T13:54:54.717Z,1.15
2022-12-03T13:57:22.979Z,1.08
2022-12-03T13:59:51.528Z,1.22
2022-12-03T14:02:20.100Z,1.08
2022-12-03T14:04:48.604Z,1.06
2022-12-03T14:07:17.456Z,0.97
2022-12-03T14:09:46.590Z,1.10
2022-12-03T14:12:26.588Z,1.01
2022-12-03T14:14:55.012Z,0.93
2022-12-03T14:17:22.807Z,0.88
2022-12-03T14:19:50.699Z,0.85
2022-12-03T14:22:19.410Z,0.68
2022-12-03T14:24:48.752Z,0.85
2022-12-03T14:27:16.859Z,0.94
2022-12-03T14:29:44.771Z,0.99
2022-12-03T14:32:12.898Z,1.04
2022-12-03T14:34:58.821Z,1.10
2022-12-03T14:37:27.673Z,0.94
2022-12-03T14:39:57.987Z,1.10
2022-12-03T14:42:26.177Z,1.13
2022-12-03T14:44:55.012Z,1.26
2022-12-03T14:47:25.076Z,1.36
2022-12-03T14:49:54.189Z,1.36
2022-12-03T14:52:22.879Z,1.40
2022-12-03T14:54:50.917Z,1.45
2022-12-03T14:57:20.313Z,1.20
2022-12-03T14:59:48.159Z,1.15
2022-12-03T15:02:16.063Z,1.39
2022-12-03T15:04:44.477Z,1.41
2022-12-03T15:07:12.479Z,1.59
2022-12-03T15:09:40.229Z,1.50
2022-12-03T15:12:08.512Z,1.34
2022-12-03T15:14:38.085Z,1.39
2022-12-03T15:17:05.916Z,0.87
2022-12-03T15:19:34.071Z,1.08
2022-12-03T15:22:01.842Z,0.82
2022-12-03T15:24:29.647Z,0.89
2022-12-03T15:26:57.352Z,0.98
2022-12-03T15:29:25.195Z,1.09
2022-12-03T15:31:54.315Z,1.21
2022-12-03T15:34:23.019Z,1.29
2022-12-03T15:36:51.333Z,1.25
2022-12-03T15:39:19.028Z,1.15
2022-12-03T15:41:46.731Z,1.26
2022-12-03T15:44:14.452Z,1.34
2022-12-03T15:46:42.230Z,1.39
2022-12-03T15:49:11.295Z,1.14
2022-12-03T15:51:38.967Z,1.13
2022-12-03T15:54:07.169Z,1.20
2022-12-03T15:56:37.402Z,1.14
2022-12-03T15:59:05.348Z,1.00
2022-12-03T16:01:33.168Z,1.03
2022-12-03T16:04:00.955Z,1.09
2022-12-03T16:06:29.952Z,1.20
2022-12-03T16:08:57.616Z,1.26
2022-12-03T16:11:25.294Z,1.29
2022-12-03T16:13:52.918Z,1.33
2022-12-03T16:16:23.191Z,1.38
2022-12-03T16:18:51.222Z,1.32
2022-12-03T16:21:22.027Z,1.17
2022-12-03T16:23:55.467Z,1.26
2022-12-03T16:26:23.679Z,1.21
2022-12-03T16:28:51.465Z,1.13
2022-12-03T16:31:20.205Z,1.08
2022-12-03T16:33:48.559Z,0.78
2022-12-03T16:36:17.124Z,0.87
2022-12-03T16:38:46.904Z,1.05
2022-12-03T16:41:15.965Z,0.98
2022-12-03T16:43:46.057Z,0.82
2022-12-03T16:46:26.152Z,1.01
2022-12-03T16:48:55.205Z,0.90
2022-12-03T16:51:23.243Z,0.91
2022-12-03T16:53:50.968Z,1.07
2022-12-03T16:56:20.309Z,1.16
2022-12-03T16:58:48.166Z,1.19
2022-12-03T17:01:15.953Z,1.12
2022-12-03T17:03:43.753Z,1.04
2022-12-03T17:06:11.491Z,0.86
2022-12-03T17:08:41.088Z,0.99
2022-12-03T17:11:12.240Z,0.94
2022-12-03T17:13:41.389Z,1.02
2022-12-03T17:16:09.358Z,1.07
2022-12-03T17:18:37.057Z,1.15
2022-12-03T17:21:05.079Z,0.95
2022-12-03T17:23:32.843Z,1.24
2022-12-03T17:26:00.740Z,1.49
2022-12-03T17:28:28.604Z,1.59
2022-12-03T17:30:57.727Z,1.37
2022-12-03T17:33:25.433Z,1.01
2022-12-03T17:35:53.213Z,1.06
2022-12-03T17:38:20.886Z,1.08
2022-12-03T17:40:48.541Z,0.94
2022-12-03T17:43:16.201Z,0.99
2022-12-03T17:45:44.235Z,1.10
2022-12-03T17:48:13.385Z,1.22
2022-12-03T17:50:41.051Z,1.27
2022-12-03T17:53:10.371Z,1.26
2022-12-03T17:55:44.627Z,1.10
2022-12-03T17:58:12.897Z,1.04
2022-12-03T18:00:40.850Z,1.09
2022-12-03T18:03:08.526Z,0.93
2022-12-03T18:05:37.625Z,0.99
2022-12-03T18:08:05.875Z,1.11
2022-12-03T18:10:33.611Z,1.15
2022-12-03T18:13:02.350Z,1.04
2022-12-03T18:15:30.790Z,1.02
2022-12-03T18:17:58.528Z,0.72
2022-12-03T18:20:27.568Z,0.86
2022-12-03T18:22:58.302Z,0.85
2022-12-03T18:25:26.288Z,1.02
2022-12-03T18:27:54.012Z,1.07
2022-12-03T18:30:22.053Z,1.09
2022-12-03T18:32:50.597Z,1.03
2022-12-03T18:35:18.367Z,0.97
2022-12-03T18:37:46.113Z,1.11
2022-12-03T18:40:22.871Z,1.20
2022-12-03T18:42:50.800Z,1.25
2022-12-03T18:45:18.714Z,0.85
2022-12-03T18:47:46.642Z,0.53
2022-12-03T18:50:14.643Z,0.62
2022-12-03T18:52:42.411Z,0.61
2022-12-03T18:55:16.023Z,0.80
2022-12-03T18:57:45.033Z,0.70
2022-12-03T19:00:14.236Z,0.74
2022-12-03T19:05:29.968Z,0.77
2022-12-03T19:07:58.057Z,0.78
2022-12-03T19:10:26.538Z,0.89
2022-12-03T19:12:55.613Z,0.99
2022-12-03T19:15:23.987Z,0.93
2022-12-03T19:17:52.039Z,0.88
2022-12-03T19:20:19.914Z,0.84
2022-12-03T19:22:47.650Z,0.82
2022-12-03T19:25:15.588Z,1.01
2022-12-03T19:27:43.308Z,1.20
2022-12-03T19:30:13.409Z,1.38
2022-12-03T19:32:43.286Z,1.35
2022-12-03T19:35:11.206Z,1.29
2022-12-03T19:37:39.136Z,1.23
2022-12-03T19:40:10.089Z,1.12
2022-12-03T19:42:39.524Z,1.04
2022-12-03T19:45:07.963Z,1.02
2022-12-03T19:47:37.952Z,1.11
2022-12-03T19:50:07.214Z,1.17
2022-12-03T19:52:36.263Z,1.23
2022-12-03T19:55:04.974Z,1.28
2022-12-03T19:57:32.682Z,1.28
2022-12-03T20:00:01.090Z,1.23
2022-12-03T20:02:29.371Z,1.17
2022-12-03T20:04:58.568Z,1.25
2022-12-03T20:07:26.346Z,1.33
2022-12-03T20:09:54.497Z,1.27
2022-12-03T20:12:22.424Z,1.27
2022-12-03T20:14:51.553Z,1.33
2022-12-03T20:17:19.338Z,1.27
2022-12-03T20:19:47.187Z,1.22
2022-12-03T20:22:16.395Z,1.27
2022-12-03T20:24:44.052Z,1.24
2022-12-03T20:27:11.711Z,1.29
2022-12-03T20:29:39.466Z,1.36
2022-12-03T20:32:07.982Z,1.25
2022-12-03T20:34:36.375Z,1.25
2022-12-03T20:37:04.397Z,1.24
2022-12-03T20:39:33.716Z,1.28
2022-12-03T20:42:01.600Z,1.33
2022-12-03T20:44:29.351Z,1.40
2022-12-03T20:46:57.044Z,1.31
2022-12-03T20:49:24.747Z,1.10
2022-12-03T20:51:52.393Z,1.21
2022-12-03T20:54:20.058Z,1.24
2022-12-03T20:56:49.091Z,1.29
2022-12-03T20:59:18.507Z,1.34
2022-12-03T21:01:46.337Z,1.30
2022-12-03T21:04:15.937Z,1.25
2022-12-03T21:06:43.680Z,1.27
2022-12-03T21:09:13.110Z,1.26
2022-12-03T21:11:42.344Z,1.16
2022-12-03T21:14:12.352Z,1.23
2022-12-03T21:19:30.284Z,1.20
2022-12-03T21:21:57.995Z,1.06
2022-12-03T21:24:25.819Z,1.07
2022-12-03T21:26:53.472Z,0.88
2022-12-03T21:29:22.668Z,0.90
2022-12-03T21:31:50.558Z,1.06
2022-12-03T21:34:18.265Z,1.21
2022-12-03T21:36:45.989Z,1.29
2022-12-03T21:39:13.720Z,1.34
2022-12-03T21:41:41.341Z,1.39
2022-12-03T21:44:30.504Z,1.25
2022-12-03T21:47:09.407Z,1.34
2022-12-03T21:49:40.713Z,1.36
2022-12-03T21:52:08.360Z,1.31
2022-12-03T21:54:35.991Z,1.29
2022-12-03T21:57:03.632Z,1.36
2022-12-03T21:59:32.999Z,1.40
2022-12-03T22:02:00.781Z,1.36
2022-12-03T22:04:28.475Z,1.25
2022-12-03T22:06:56.254Z,1.27
2022-12-03T22:09:26.711Z,1.44
2022-12-03T22:11:56.718Z,1.60
2022-12-03T22:14:24.363Z,1.71
2022-12-03T22:16:53.314Z,1.60
2022-12-03T22:19:22.997Z,1.52
2022-12-03T22:21:50.699Z,1.65
2022-12-03T22:24:19.449Z,1.43
2022-12-03T22:26:47.902Z,1.42
2022-12-03T22:29:16.134Z,1.46
2022-12-03T22:31:45.842Z,1.13
2022-12-03T22:34:14.823Z,1.23
2022-12-03T22:36:42.431Z,1.19
2022-12-03T22:39:10.105Z,1.23
2022-12-03T22:41:37.700Z,1.16
2022-12-03T22:44:05.548Z,1.22
2022-12-03T22:46:33.268Z,1.30
2022-12-03T22:49:06.663Z,1.37
2022-12-03T22:51:36.883Z,1.31
2022-12-03T22:54:05.423Z,1.37
2022-12-03T22:56:33.636Z,1.38
2022-12-03T22:59:01.357Z,1.36
2022-12-03T23:01:30.650Z,1.02
2022-12-03T23:03:58.787Z,1.13
2022-12-03T23:06:27.349Z,1.17
2022-12-03T23:08:56.671Z,1.26
2022-12-03T23:11:24.826Z,1.33
2022-12-03T23:13:53.116Z,1.38
2022-12-03T23:16:22.937Z,1.43
2022-12-03T23:18:50.876Z,1.42
2022-12-03T23:21:25.404Z,1.45
2022-12-03T23:23:58.059Z,1.48
2022-12-03T23:26:26.255Z,1.45
2022-12-03T23:28:53.999Z,1.46
2022-12-03T23:31:23.963Z,1.43
2022-12-03T23:33:52.504Z,1.41
2022-12-03T23:36:21.777Z,1.43
2022-12-03T23:38:49.875Z,1.47
2022-12-03T23:41:20.760Z,1.35
2022-12-03T23:43:48.710Z,1.17
2022-12-03T23:46:18.185Z,1.19
2022-12-03T23:48:46.570Z,1.06
2022-12-03T23:51:15.736Z,1.17
2022-12-03T23:53:43.436Z,1.23
2022-12-03T23:56:13.926Z,1.11
2022-12-03T23:58:43.351Z,1.13
